sensor_id;sensor_type;location;lat;lon;timestamp;P1;durP1;ratioP1;P2;durP2;ratioP2
45962;SDS011;31669;49.892;20.818;2022-11-28T00:03:19;29.60;;;11.83;;
45962;SDS011;31669;49.892;20.818;2022-11-28T00:08:21;28.20;;;12.77;;
45962;SDS011;31669;49.892;20.818;2022-11-28T00:13:22;16.43;;;9.50;;
45962;SDS011;31669;49.892;20.818;2022-11-28T00:18:23;27.97;;;11.70;;
45962;SDS011;31669;49.892;20.818;2022-11-28T00:23:24;20.42;;;9.75;;
45962;SDS011;31669;49.892;20.818;2022-11-28T00:28:24;18.33;;;10.27;;
45962;SDS011;31669;49.892;20.818;2022-11-28T00:33:25;20.63;;;8.63;;
45962;SDS011;31669;49.892;20.818;2022-11-28T00:38:26;18.90;;;8.70;;
45962;SDS011;31669;49.892;20.818;2022-11-28T00:43:27;21.60;;;10.50;;
45962;SDS011;31669;49.892;20.818;2022-11-28T00:48:28;24.73;;;11.52;;
45962;SDS011;31669;49.892;20.818;2022-11-28T00:53:29;19.13;;;9.40;;
45962;SDS011;31669;49.892;20.818;2022-11-28T00:58:30;19.77;;;11.05;;
45962;SDS011;31669;49.892;20.818;2022-11-28T01:08:31;22.20;;;10.50;;
45962;SDS011;31669;49.892;20.818;2022-11-28T01:13:32;20.57;;;10.97;;
45962;SDS011;31669;49.892;20.818;2022-11-28T01:18:33;25.33;;;11.10;;
45962;SDS011;31669;49.892;20.818;2022-11-28T01:23:34;21.93;;;10.10;;
45962;SDS011;31669;49.892;20.818;2022-11-28T01:28:35;21.05;;;10.57;;
45962;SDS011;31669;49.892;20.818;2022-11-28T01:33:35;18.73;;;9.27;;
45962;SDS011;31669;49.892;20.818;2022-11-28T01:38:36;22.90;;;10.17;;
45962;SDS011;31669;49.892;20.818;2022-11-28T01:43:54;19.83;;;9.85;;
45962;SDS011;31669;49.892;20.818;2022-11-28T01:48:56;24.23;;;9.77;;
45962;SDS011;31669;49.892;20.818;2022-11-28T01:53:58;15.52;;;8.60;;
45962;SDS011;31669;49.892;20.818;2022-11-28T01:59:01;16.50;;;7.97;;
45962;SDS011;31669;49.892;20.818;2022-11-28T02:04:04;20.45;;;9.32;;
45962;SDS011;31669;49.892;20.818;2022-11-28T02:09:05;17.65;;;9.07;;
45962;SDS011;31669;49.892;20.818;2022-11-28T02:35:23;16.55;;;7.95;;
45962;SDS011;31669;49.892;20.818;2022-11-28T02:55:52;14.00;;;7.43;;
45962;SDS011;31669;49.892;20.818;2022-11-28T03:00:53;12.13;;;5.80;;
45962;SDS011;31669;49.892;20.818;2022-11-28T03:26:41;10.70;;;5.30;;
45962;SDS011;31669;49.892;20.818;2022-11-28T03:37:18;13.00;;;5.78;;
45962;SDS011;31669;49.892;20.818;2022-11-28T03:42:23;9.68;;;5.43;;
45962;SDS011;31669;49.892;20.818;2022-11-28T03:47:25;13.18;;;5.72;;
45962;SDS011;31669;49.892;20.818;2022-11-28T03:52:28;13.00;;;5.32;;
45962;SDS011;31669;49.892;20.818;2022-11-28T04:07:54;9.95;;;5.22;;
45962;SDS011;31669;49.892;20.818;2022-11-28T04:13:02;9.02;;;5.13;;
45962;SDS011;31669;49.892;20.818;2022-11-28T04:18:10;8.88;;;4.45;;
45962;SDS011;31669;49.892;20.818;2022-11-28T04:23:17;5.80;;;3.50;;
45962;SDS011;31669;49.892;20.818;2022-11-28T04:28:20;9.55;;;3.55;;
45962;SDS011;31669;49.892;20.818;2022-11-28T04:33:22;6.25;;;3.05;;
45962;SDS011;31669;49.892;20.818;2022-11-28T04:38:25;5.88;;;4.35;;
45962;SDS011;31669;49.892;20.818;2022-11-28T04:43:34;5.45;;;2.65;;
45962;SDS011;31669;49.892;20.818;2022-11-28T04:48:35;4.03;;;2.95;;
45962;SDS011;31669;49.892;20.818;2022-11-28T04:53:42;6.97;;;3.00;;
45962;SDS011;31669;49.892;20.818;2022-11-28T04:58:46;4.80;;;2.92;;
45962;SDS011;31669;49.892;20.818;2022-11-28T05:03:48;5.93;;;2.70;;
45962;SDS011;31669;49.892;20.818;2022-11-28T05:08:49;4.47;;;2.17;;
45962;SDS011;31669;49.892;20.818;2022-11-28T05:13:50;4.93;;;2.85;;
45962;SDS011;31669;49.892;20.818;2022-11-28T05:18:50;13.10;;;5.07;;
45962;SDS011;31669;49.892;20.818;2022-11-28T05:23:51;12.07;;;5.22;;
45962;SDS011;31669;49.892;20.818;2022-11-28T05:28:52;13.20;;;6.30;;
45962;SDS011;31669;49.892;20.818;2022-11-28T05:33:53;10.87;;;6.00;;
45962;SDS011;31669;49.892;20.818;2022-11-28T05:43:55;10.15;;;4.43;;
45962;SDS011;31669;49.892;20.818;2022-11-28T05:48:56;9.45;;;4.07;;
45962;SDS011;31669;49.892;20.818;2022-11-28T05:53:57;6.20;;;3.00;;
45962;SDS011;31669;49.892;20.818;2022-11-28T05:58:58;9.90;;;4.23;;
45962;SDS011;31669;49.892;20.818;2022-11-28T06:03:59;6.70;;;3.37;;
45962;SDS011;31669;49.892;20.818;2022-11-28T06:14:01;14.27;;;4.53;;
45962;SDS011;31669;49.892;20.818;2022-11-28T06:24:03;6.15;;;3.30;;
45962;SDS011;31669;49.892;20.818;2022-11-28T06:29:04;11.80;;;4.60;;
45962;SDS011;31669;49.892;20.818;2022-11-28T06:34:04;10.18;;;4.72;;
45962;SDS011;31669;49.892;20.818;2022-11-28T06:39:05;8.43;;;3.70;;
45962;SDS011;31669;49.892;20.818;2022-11-28T06:44:06;8.43;;;3.43;;
45962;SDS011;31669;49.892;20.818;2022-11-28T06:49:08;8.93;;;4.03;;
45962;SDS011;31669;49.892;20.818;2022-11-28T06:54:10;6.80;;;3.65;;
45962;SDS011;31669;49.892;20.818;2022-11-28T06:59:11;8.10;;;3.28;;
45962;SDS011;31669;49.892;20.818;2022-11-28T07:04:12;9.18;;;3.33;;
45962;SDS011;31669;49.892;20.818;2022-11-28T07:09:13;9.77;;;4.27;;
45962;SDS011;31669;49.892;20.818;2022-11-28T07:14:14;6.90;;;3.87;;
45962;SDS011;31669;49.892;20.818;2022-11-28T07:19:15;5.97;;;3.17;;
45962;SDS011;31669;49.892;20.818;2022-11-28T07:24:16;6.80;;;3.45;;
45962;SDS011;31669;49.892;20.818;2022-11-28T07:29:18;6.47;;;3.25;;
45962;SDS011;31669;49.892;20.818;2022-11-28T07:34:18;6.88;;;3.38;;
45962;SDS011;31669;49.892;20.818;2022-11-28T07:39:19;5.47;;;3.67;;
45962;SDS011;31669;49.892;20.818;2022-11-28T07:44:20;7.82;;;4.35;;
45962;SDS011;31669;49.892;20.818;2022-11-28T07:49:21;7.77;;;3.87;;
45962;SDS011;31669;49.892;20.818;2022-11-28T07:54:22;6.70;;;4.60;;
45962;SDS011;31669;49.892;20.818;2022-11-28T07:59:22;6.93;;;3.87;;
45962;SDS011;31669;49.892;20.818;2022-11-28T08:04:23;5.28;;;3.42;;
45962;SDS011;31669;49.892;20.818;2022-11-28T08:09:24;8.20;;;3.80;;
45962;SDS011;31669;49.892;20.818;2022-11-28T08:14:25;7.20;;;3.63;;
45962;SDS011;31669;49.892;20.818;2022-11-28T08:19:26;9.32;;;3.08;;
45962;SDS011;31669;49.892;20.818;2022-11-28T08:24:26;8.45;;;4.50;;
45962;SDS011;31669;49.892;20.818;2022-11-28T08:29:27;10.70;;;4.97;;
45962;SDS011;31669;49.892;20.818;2022-11-28T08:34:31;10.00;;;4.57;;
45962;SDS011;31669;49.892;20.818;2022-11-28T08:39:32;8.35;;;3.28;;
45962;SDS011;31669;49.892;20.818;2022-11-28T08:49:35;7.20;;;3.47;;
45962;SDS011;31669;49.892;20.818;2022-11-28T08:54:36;5.35;;;2.58;;
45962;SDS011;31669;49.892;20.818;2022-11-28T08:59:36;4.60;;;2.70;;
45962;SDS011;31669;49.892;20.818;2022-11-28T09:04:37;9.20;;;4.07;;
45962;SDS011;31669;49.892;20.818;2022-11-28T09:09:38;6.80;;;3.90;;
45962;SDS011;31669;49.892;20.818;2022-11-28T09:14:39;6.07;;;3.87;;
45962;SDS011;31669;49.892;20.818;2022-11-28T09:19:39;8.80;;;4.23;;
45962;SDS011;31669;49.892;20.818;2022-11-28T09:24:40;6.25;;;3.28;;
45962;SDS011;31669;49.892;20.818;2022-11-28T09:29:41;9.60;;;4.37;;
45962;SDS011;31669;49.892;20.818;2022-11-28T09:34:42;6.57;;;4.33;;
45962;SDS011;31669;49.892;20.818;2022-11-28T09:39:42;6.43;;;3.57;;
45962;SDS011;31669;49.892;20.818;2022-11-28T09:50:04;6.57;;;3.05;;
45962;SDS011;31669;49.892;20.818;2022-11-28T09:55:15;6.05;;;3.10;;
45962;SDS011;31669;49.892;20.818;2022-11-28T10:00:21;1.77;;;1.23;;
45962;SDS011;31669;49.892;20.818;2022-11-28T10:06:11;4.90;;;3.15;;
45962;SDS011;31669;49.892;20.818;2022-11-28T10:20:53;4.18;;;2.42;;
45962;SDS011;31669;49.892;20.818;2022-11-28T10:26:28;8.07;;;3.05;;
45962;SDS011;31669;49.892;20.818;2022-11-28T10:36:26;9.63;;;3.63;;
45962;SDS011;31669;49.892;20.818;2022-11-28T10:41:35;1.90;;;1.73;;
45962;SDS011;31669;49.892;20.818;2022-11-28T10:46:48;6.43;;;2.92;;
45962;SDS011;31669;49.892;20.818;2022-11-28T10:51:59;1.80;;;1.60;;
45962;SDS011;31669;49.892;20.818;2022-11-28T10:57:11;3.70;;;1.73;;
45962;SDS011;31669;49.892;20.818;2022-11-28T11:02:20;4.88;;;1.92;;
45962;SDS011;31669;49.892;20.818;2022-11-28T11:07:27;4.80;;;2.25;;
45962;SDS011;31669;49.892;20.818;2022-11-28T11:12:29;3.70;;;1.75;;
45962;SDS011;31669;49.892;20.818;2022-11-28T11:17:32;8.52;;;3.65;;
45962;SDS011;31669;49.892;20.818;2022-11-28T11:22:33;2.42;;;1.58;;
45962;SDS011;31669;49.892;20.818;2022-11-28T11:27:34;5.85;;;2.08;;
45962;SDS011;31669;49.892;20.818;2022-11-28T11:37:37;10.48;;;3.28;;
45962;SDS011;31669;49.892;20.818;2022-11-28T11:42:37;2.90;;;2.55;;
45962;SDS011;31669;49.892;20.818;2022-11-28T11:47:50;2.80;;;1.70;;
45962;SDS011;31669;49.892;20.818;2022-11-28T11:58:04;4.90;;;2.28;;
45962;SDS011;31669;49.892;20.818;2022-11-28T12:08:23;6.30;;;2.75;;
45962;SDS011;31669;49.892;20.818;2022-11-28T12:13:24;6.20;;;2.30;;
45962;SDS011;31669;49.892;20.818;2022-11-28T12:18:50;4.80;;;2.85;;
45962;SDS011;31669;49.892;20.818;2022-11-28T12:34:09;5.40;;;2.50;;
45962;SDS011;31669;49.892;20.818;2022-11-28T12:44:37;2.13;;;1.50;;
45962;SDS011;31669;49.892;20.818;2022-11-28T12:50:29;4.32;;;2.20;;
45962;SDS011;31669;49.892;20.818;2022-11-28T12:55:17;3.97;;;2.20;;
45962;SDS011;31669;49.892;20.818;2022-11-28T13:00:20;3.30;;;2.07;;
45962;SDS011;31669;49.892;20.818;2022-11-28T13:20:46;10.80;;;3.97;;
45962;SDS011;31669;49.892;20.818;2022-11-28T13:31:00;7.65;;;3.30;;
45962;SDS011;31669;49.892;20.818;2022-11-28T13:36:01;4.72;;;2.10;;
45962;SDS011;31669;49.892;20.818;2022-11-28T13:41:18;7.50;;;2.97;;
45962;SDS011;31669;49.892;20.818;2022-11-28T13:46:20;6.60;;;3.72;;
45962;SDS011;31669;49.892;20.818;2022-11-28T13:51:22;1.13;;;0.98;;
45962;SDS011;31669;49.892;20.818;2022-11-28T13:56:25;6.55;;;3.80;;
45962;SDS011;31669;49.892;20.818;2022-11-28T14:01:26;13.80;;;4.75;;
45962;SDS011;31669;49.892;20.818;2022-11-28T14:06:38;9.57;;;4.97;;
45962;SDS011;31669;49.892;20.818;2022-11-28T14:27:14;12.38;;;5.35;;
45962;SDS011;31669;49.892;20.818;2022-11-28T14:32:59;13.15;;;5.22;;
45962;SDS011;31669;49.892;20.818;2022-11-28T14:37:48;10.00;;;4.32;;
45962;SDS011;31669;49.892;20.818;2022-11-28T14:42:49;11.65;;;5.05;;
45962;SDS011;31669;49.892;20.818;2022-11-28T14:53:35;8.15;;;3.90;;
45962;SDS011;31669;49.892;20.818;2022-11-28T14:58:37;13.25;;;5.57;;
45962;SDS011;31669;49.892;20.818;2022-11-28T15:03:39;13.00;;;6.55;;
45962;SDS011;31669;49.892;20.818;2022-11-28T15:19:09;15.70;;;7.32;;
45962;SDS011;31669;49.892;20.818;2022-11-28T15:24:14;12.90;;;5.80;;
45962;SDS011;31669;49.892;20.818;2022-11-28T15:29:19;12.68;;;6.13;;
45962;SDS011;31669;49.892;20.818;2022-11-28T15:34:25;17.13;;;7.75;;
45962;SDS011;31669;49.892;20.818;2022-11-28T15:39:41;17.65;;;8.52;;
45962;SDS011;31669;49.892;20.818;2022-11-28T15:44:44;24.63;;;10.20;;
45962;SDS011;31669;49.892;20.818;2022-11-28T15:59:57;19.58;;;7.80;;
45962;SDS011;31669;49.892;20.818;2022-11-28T16:05:04;14.50;;;7.40;;
45962;SDS011;31669;49.892;20.818;2022-11-28T16:10:06;14.20;;;6.80;;
45962;SDS011;31669;49.892;20.818;2022-11-28T16:15:14;23.55;;;9.85;;
45962;SDS011;31669;49.892;20.818;2022-11-28T16:25:20;14.90;;;6.60;;
45962;SDS011;31669;49.892;20.818;2022-11-28T16:35:24;17.52;;;8.07;;
45962;SDS011;31669;49.892;20.818;2022-11-28T16:40:25;17.75;;;6.72;;
45962;SDS011;31669;49.892;20.818;2022-11-28T16:45:27;14.83;;;7.10;;
45962;SDS011;31669;49.892;20.818;2022-11-28T16:50:28;17.73;;;7.68;;
45962;SDS011;31669;49.892;20.818;2022-11-28T17:00:30;16.92;;;7.90;;
45962;SDS011;31669;49.892;20.818;2022-11-28T17:05:31;18.03;;;8.17;;
45962;SDS011;31669;49.892;20.818;2022-11-28T17:10:32;14.38;;;6.60;;
45962;SDS011;31669;49.892;20.818;2022-11-28T17:15:33;18.80;;;8.23;;
45962;SDS011;31669;49.892;20.818;2022-11-28T17:20:34;23.87;;;8.33;;
45962;SDS011;31669;49.892;20.818;2022-11-28T17:25:35;23.45;;;8.40;;
45962;SDS011;31669;49.892;20.818;2022-11-28T17:30:35;22.07;;;8.43;;
45962;SDS011;31669;49.892;20.818;2022-11-28T17:35:36;13.53;;;7.60;;
45962;SDS011;31669;49.892;20.818;2022-11-28T17:40:40;22.45;;;9.95;;
45962;SDS011;31669;49.892;20.818;2022-11-28T17:45:41;21.85;;;8.15;;
45962;SDS011;31669;49.892;20.818;2022-11-28T17:55:44;21.38;;;7.70;;
45962;SDS011;31669;49.892;20.818;2022-11-28T18:05:46;20.63;;;8.30;;
45962;SDS011;31669;49.892;20.818;2022-11-28T18:10:49;20.52;;;7.95;;
45962;SDS011;31669;49.892;20.818;2022-11-28T18:16:00;18.40;;;8.87;;
45962;SDS011;31669;49.892;20.818;2022-11-28T18:21:02;13.73;;;7.38;;
45962;SDS011;31669;49.892;20.818;2022-11-28T18:26:06;18.70;;;9.57;;
45962;SDS011;31669;49.892;20.818;2022-11-28T18:31:11;20.83;;;8.52;;
45962;SDS011;31669;49.892;20.818;2022-11-28T18:41:14;17.60;;;6.72;;
45962;SDS011;31669;49.892;20.818;2022-11-28T18:46:16;22.20;;;7.68;;
45962;SDS011;31669;49.892;20.818;2022-11-28T18:51:21;18.60;;;8.27;;
45962;SDS011;31669;49.892;20.818;2022-11-28T18:56:23;15.02;;;8.98;;
45962;SDS011;31669;49.892;20.818;2022-11-28T19:01:25;17.60;;;8.68;;
45962;SDS011;31669;49.892;20.818;2022-11-28T19:06:30;20.98;;;9.35;;
45962;SDS011;31669;49.892;20.818;2022-11-28T19:11:31;20.30;;;8.40;;
45962;SDS011;31669;49.892;20.818;2022-11-28T19:16:33;14.82;;;7.50;;
45962;SDS011;31669;49.892;20.818;2022-11-28T19:21:34;14.68;;;8.40;;
45962;SDS011;31669;49.892;20.818;2022-11-28T19:26:36;22.90;;;10.68;;
45962;SDS011;31669;49.892;20.818;2022-11-28T19:31:39;20.45;;;9.63;;
45962;SDS011;31669;49.892;20.818;2022-11-28T19:36:41;23.48;;;10.40;;
45962;SDS011;31669;49.892;20.818;2022-11-28T19:41:43;20.42;;;9.23;;
45962;SDS011;31669;49.892;20.818;2022-11-28T19:46:44;20.88;;;9.40;;
45962;SDS011;31669;49.892;20.818;2022-11-28T19:51:45;20.65;;;8.88;;
45962;SDS011;31669;49.892;20.818;2022-11-28T19:56:47;29.27;;;11.90;;
45962;SDS011;31669;49.892;20.818;2022-11-28T20:01:48;24.58;;;11.00;;
45962;SDS011;31669;49.892;20.818;2022-11-28T20:06:52;28.55;;;12.55;;
45962;SDS011;31669;49.892;20.818;2022-11-28T20:11:53;23.90;;;11.07;;
45962;SDS011;31669;49.892;20.818;2022-11-28T20:16:53;20.07;;;9.17;;
45962;SDS011;31669;49.892;20.818;2022-11-28T20:21:54;27.15;;;11.93;;
45962;SDS011;31669;49.892;20.818;2022-11-28T20:26:58;20.10;;;10.32;;
45962;SDS011;31669;49.892;20.818;2022-11-28T20:31:59;18.07;;;8.03;;
45962;SDS011;31669;49.892;20.818;2022-11-28T20:37:00;13.77;;;8.70;;
45962;SDS011;31669;49.892;20.818;2022-11-28T20:42:01;28.30;;;10.32;;
45962;SDS011;31669;49.892;20.818;2022-11-28T20:47:02;26.40;;;8.87;;
45962;SDS011;31669;49.892;20.818;2022-11-28T20:52:03;25.60;;;9.90;;
45962;SDS011;31669;49.892;20.818;2022-11-28T20:57:03;25.70;;;10.05;;
45962;SDS011;31669;49.892;20.818;2022-11-28T21:02:04;31.17;;;12.40;;
45962;SDS011;31669;49.892;20.818;2022-11-28T21:07:05;25.47;;;10.53;;
45962;SDS011;31669;49.892;20.818;2022-11-28T21:12:06;26.77;;;10.77;;
45962;SDS011;31669;49.892;20.818;2022-11-28T21:17:07;36.03;;;13.75;;
45962;SDS011;31669;49.892;20.818;2022-11-28T21:22:08;21.75;;;10.18;;
45962;SDS011;31669;49.892;20.818;2022-11-28T21:27:08;17.03;;;8.30;;
45962;SDS011;31669;49.892;20.818;2022-11-28T21:32:09;19.77;;;9.53;;
45962;SDS011;31669;49.892;20.818;2022-11-28T21:37:13;19.70;;;8.93;;
45962;SDS011;31669;49.892;20.818;2022-11-28T21:42:13;14.50;;;8.05;;
45962;SDS011;31669;49.892;20.818;2022-11-28T21:47:14;18.07;;;8.00;;
45962;SDS011;31669;49.892;20.818;2022-11-28T21:52:15;17.83;;;8.10;;
45962;SDS011;31669;49.892;20.818;2022-11-28T21:57:18;21.38;;;7.80;;
45962;SDS011;31669;49.892;20.818;2022-11-28T22:02:19;16.03;;;8.20;;
45962;SDS011;31669;49.892;20.818;2022-11-28T22:07:20;12.00;;;6.60;;
45962;SDS011;31669;49.892;20.818;2022-11-28T22:12:20;16.50;;;8.20;;
45962;SDS011;31669;49.892;20.818;2022-11-28T22:17:21;15.93;;;6.90;;
45962;SDS011;31669;49.892;20.818;2022-11-28T22:22:22;14.27;;;6.57;;
45962;SDS011;31669;49.892;20.818;2022-11-28T22:27:25;20.52;;;8.20;;
45962;SDS011;31669;49.892;20.818;2022-11-28T22:32:25;20.27;;;8.52;;
45962;SDS011;31669;49.892;20.818;2022-11-28T22:37:26;16.97;;;7.57;;
45962;SDS011;31669;49.892;20.818;2022-11-28T22:42:27;20.80;;;8.20;;
45962;SDS011;31669;49.892;20.818;2022-11-28T22:47:27;16.33;;;6.73;;
45962;SDS011;31669;49.892;20.818;2022-11-28T22:52:28;15.50;;;7.80;;
45962;SDS011;31669;49.892;20.818;2022-11-28T22:57:29;17.83;;;8.13;;
45962;SDS011;31669;49.892;20.818;2022-11-28T23:02:30;14.60;;;6.90;;
45962;SDS011;31669;49.892;20.818;2022-11-28T23:07:30;11.77;;;6.63;;
45962;SDS011;31669;49.892;20.818;2022-11-28T23:12:31;15.43;;;6.80;;
45962;SDS011;31669;49.892;20.818;2022-11-28T23:17:32;17.02;;;6.88;;
45962;SDS011;31669;49.892;20.818;2022-11-28T23:22:33;13.00;;;6.07;;
45962;SDS011;31669;49.892;20.818;2022-11-28T23:27:35;14.57;;;6.70;;
45962;SDS011;31669;49.892;20.818;2022-11-28T23:32:36;14.05;;;6.82;;
45962;SDS011;31669;49.892;20.818;2022-11-28T23:37:37;14.07;;;7.27;;
45962;SDS011;31669;49.892;20.818;2022-11-28T23:42:41;8.32;;;5.13;;
45962;SDS011;31669;49.892;20.818;2022-11-28T23:47:41;16.15;;;7.45;;
45962;SDS011;31669;49.892;20.818;2022-11-28T23:52:42;8.90;;;5.07;;
45962;SDS011;31669;49.892;20.818;2022-11-28T23:57:43;15.67;;;6.10;;
